Temp: 0.3°C   Baro: 1049.4mb
  Wind: 0.0mph   Dir: NW (316°)
  Rain: 0.0mm (0.0mm/hr)
  Solar: 0W/m2  Hum: 93%
 
Bath Spa Weather Historical Data
Daily Summary for July 15, 2019 Units:  English    Metric   Both
Next Day »
Daily Weekly Monthly Yearly Custom
  High: Low: Average:
Temperature: 76.1 °F 52.3 °F 64.2 °F
Dew Point: 57.2 °F 48.4 °F 53.1 °F
Humidity: 87% 48% 68%
Wind Speed: 10mph 0mph 1.7mph
Wind Gust: 11mph - -
Wind direction- - ESE
Pressure: 30.2 in 30.1 in -
Precipitation: 0 in    
Historical Graphs
 
 
Tabular Data for July 15, 2019
Time Temperature Dew Point Pressure Wind direction Wind Speed Wind Gust Humidity Rainfall Rate (Hourly) solar
00:04 61.3 °F 53.1 °F 30.2 in ESE 4 mph 5 mph 74% 0 in 0.00 W/m2
00:09 61.2 °F 52.9 °F 30.2 in NE 2.9 mph 3 mph 74% 0 in 0.00 W/m2
00:14 61 °F 53.1 °F 30.2 in Calm   3 mph 75% 0 in 0.00 W/m2
00:19 60.8 °F 52.9 °F 30.2 in NE 2 mph 3 mph 75% 0 in 0.00 W/m2
00:24 60.6 °F 52.7 °F 30.2 in Calm   4 mph 75% 0 in 0.00 W/m2
00:29 60.6 °F 52.7 °F 30.2 in Calm   1 mph 75% 0 in 0.00 W/m2
00:34 60.4 °F 52.5 °F 30.2 in ENE 2 mph 4 mph 75% 0 in 0.00 W/m2
00:39 60.3 °F 52.3 °F 30.2 in Calm   2 mph 75% 0 in 0.00 W/m2
00:44 60.1 °F 52.2 °F 30.2 in Calm   3 mph 75% 0 in 0.00 W/m2
00:49 59.9 °F 52 °F 30.2 in SE 0.9 mph 4 mph 75% 0 in 0.00 W/m2
00:54 59.9 °F 52 °F 30.2 in Calm   3 mph 75% 0 in 0.00 W/m2
00:59 59.7 °F 51.8 °F 30.2 in Calm     75% 0 in 0.00 W/m2
01:04 59.7 °F 51.8 °F 30.2 in Calm     75% 0 in 0.00 W/m2
01:09 59.5 °F 52 °F 30.2 in Calm   2 mph 76% 0 in 0.00 W/m2
01:14 59.4 °F 51.8 °F 30.2 in Calm   2 mph 76% 0 in 0.00 W/m2
01:19 59.2 °F 51.6 °F 30.2 in SE 0.9 mph 4 mph 76% 0 in 0.00 W/m2
01:24 59 °F 51.8 °F 30.2 in Calm   1 mph 77% 0 in 0.00 W/m2
01:29 58.8 °F 51.6 °F 30.2 in Calm   2 mph 77% 0 in 0.00 W/m2
01:34 58.8 °F 52 °F 30.2 in ESE 3 mph 3 mph 78% 0 in 0.00 W/m2
01:39 58.6 °F 51.8 °F 30.2 in ESE 0.9 mph 3 mph 78% 0 in 0.00 W/m2
01:44 58.6 °F 51.8 °F 30.2 in ESE 0.9 mph 2 mph 78% 0 in 0.00 W/m2
01:49 58.6 °F 51.8 °F 30.2 in ESE 7 mph 7 mph 78% 0 in 0.00 W/m2
01:54 58.5 °F 51.6 °F 30.2 in Calm   2 mph 78% 0 in 0.00 W/m2
01:59 58.5 °F 51.6 °F 30.2 in East 5 mph 5 mph 78% 0 in 0.00 W/m2
02:04 58.1 °F 51.6 °F 30.2 in NE 4 mph 5 mph 79% 0 in 0.00 W/m2
02:09 57.9 °F 51.4 °F 30.2 in ESE 2 mph 5 mph 79% 0 in 0.00 W/m2
02:14 57.9 °F 51.4 °F 30.2 in ESE 0.9 mph 3 mph 79% 0 in 0.00 W/m2
02:19 57.7 °F 51.3 °F 30.2 in SE 4 mph 7 mph 79% 0 in 0.00 W/m2
02:24 57.6 °F 51.4 °F 30.2 in Calm   5 mph 80% 0 in 0.00 W/m2
02:29 57.6 °F 51.4 °F 30.2 in Calm   3 mph 80% 0 in 0.00 W/m2
02:34 57.6 °F 51.4 °F 30.2 in Calm   1 mph 80% 0 in 0.00 W/m2
02:39 57.2 °F 51.1 °F 30.2 in Calm   1 mph 80% 0 in 0.00 W/m2
02:44 57.2 °F 51.1 °F 30.2 in ESE 2 mph 2 mph 80% 0 in 0.00 W/m2
02:49 57 °F 51.3 °F 30.2 in ESE 3 mph 3 mph 81% 0 in 0.00 W/m2
02:54 56.8 °F 51.1 °F 30.2 in ESE 2 mph 2 mph 81% 0 in 0.00 W/m2
02:59 56.7 °F 50.9 °F 30.2 in Calm   6 mph 81% 0 in 0.00 W/m2
03:04 56.5 °F 50.7 °F 30.2 in ESE 0.9 mph 3 mph 81% 0 in 0.00 W/m2
03:09 56.3 °F 50.9 °F 30.2 in ESE 2 mph 2 mph 82% 0 in 0.00 W/m2
03:14 55.9 °F 50.5 °F 30.2 in Calm   2 mph 82% 0 in 0.00 W/m2
03:19 55.8 °F 50.4 °F 30.2 in Calm   2 mph 82% 0 in 0.00 W/m2
03:24 55.4 °F 50.4 °F 30.2 in Calm   2 mph 83% 0 in 0.00 W/m2
03:29 55.2 °F 50.2 °F 30.2 in Calm   3 mph 83% 0 in 0.00 W/m2
03:34 55 °F 50 °F 30.2 in ESE 0.9 mph 3 mph 83% 0 in 0.00 W/m2
03:39 55 °F 50.4 °F 30.2 in Calm   2 mph 84% 0 in 0.00 W/m2
03:44 54.9 °F 50.2 °F 30.2 in Calm   3 mph 84% 0 in 0.00 W/m2
03:49 54.5 °F 49.8 °F 30.2 in Calm   1 mph 84% 0 in 0.00 W/m2
03:54 54.5 °F 49.8 °F 30.2 in Calm   1 mph 84% 0 in 0.00 W/m2
03:59 54.5 °F 50 °F 30.2 in Calm   2 mph 85% 0 in 0.00 W/m2
04:04 54.3 °F 49.6 °F 30.2 in Calm   3 mph 84% 0 in 0.00 W/m2
04:09 54.1 °F 49.8 °F 30.2 in Calm     85% 0 in 0.00 W/m2
04:14 54.1 °F 49.8 °F 30.2 in Calm   1 mph 85% 0 in 0.00 W/m2
04:19 54 °F 49.6 °F 30.2 in Calm   1 mph 85% 0 in 0.00 W/m2
04:24 54 °F 49.6 °F 30.2 in Calm   1 mph 85% 0 in 0.00 W/m2
04:29 53.8 °F 49.5 °F 30.2 in Calm     85% 0 in 0.00 W/m2
04:34 53.6 °F 49.3 °F 30.2 in Calm     85% 0 in 0.00 W/m2
04:39 53.6 °F 49.3 °F 30.2 in Calm   3 mph 85% 0 in 0.00 W/m2
04:44 53.4 °F 49.1 °F 30.2 in Calm     85% 0 in 0.00 W/m2
04:49 53.4 °F 49.3 °F 30.2 in Calm   1 mph 86% 0 in 0.00 W/m2
04:54 53.2 °F 49.1 °F 30.2 in Calm   1 mph 86% 0 in 0.00 W/m2
04:59 53.1 °F 48.9 °F 30.2 in Calm     86% 0 in 0.00 W/m2
05:04 52.9 °F 48.7 °F 30.2 in Calm     86% 0 in 0.00 W/m2
05:09 52.9 °F 48.7 °F 30.2 in Calm     86% 0 in 0.00 W/m2
05:14 52.7 °F 48.6 °F 30.2 in Calm   2 mph 86% 0 in 5.00 W/m2
05:19 52.7 °F 48.6 °F 30.2 in Calm   1 mph 86% 0 in 7.00 W/m2
05:24 52.5 °F 48.7 °F 30.2 in ESE 2 mph 4 mph 87% 0 in 9.00 W/m2
05:29 52.5 °F 48.4 °F 30.2 in ESE 0.9 mph 2 mph 86% 0 in 11.00 W/m2
05:34 52.5 °F 48.7 °F 30.2 in ESE 2 mph 3 mph 87% 0 in 12.00 W/m2
05:39 52.3 °F 48.6 °F 30.2 in Calm   2 mph 87% 0 in 14.00 W/m2
05:44 52.3 °F 48.6 °F 30.2 in Calm   2 mph 87% 0 in 16.00 W/m2
05:49 52.3 °F 48.6 °F 30.2 in Calm   1 mph 87% 0 in 18.00 W/m2
05:54 52.3 °F 48.6 °F 30.2 in ESE 0.9 mph 2 mph 87% 0 in 19.00 W/m2
05:59 52.3 °F 48.6 °F 30.2 in Calm   2 mph 87% 0 in 23.00 W/m2
06:04 52.3 °F 48.6 °F 30.2 in Calm     87% 0 in 25.00 W/m2
06:09 52.3 °F 48.6 °F 30.2 in Calm     87% 0 in 26.00 W/m2
06:14 52.5 °F 48.7 °F 30.2 in Calm     87% 0 in 28.00 W/m2
06:19 52.7 °F 48.9 °F 30.2 in Calm   1 mph 87% 0 in 30.00 W/m2
06:24 52.9 °F 49.1 °F 30.2 in Calm   1 mph 87% 0 in 32.00 W/m2
06:29 53.1 °F 49.3 °F 30.2 in Calm   1 mph 87% 0 in 33.00 W/m2
06:34 53.2 °F 49.5 °F 30.2 in Calm   1 mph 87% 0 in 37.00 W/m2
06:39 53.2 °F 49.5 °F 30.2 in Calm   1 mph 87% 0 in 40.00 W/m2
06:44 53.2 °F 49.5 °F 30.2 in Calm   2 mph 87% 0 in 46.00 W/m2
06:49 53.4 °F 49.6 °F 30.2 in ESE 0.9 mph 2 mph 87% 0 in 54.00 W/m2
06:54 53.6 °F 49.8 °F 30.2 in ESE 2.9 mph 3 mph 87% 0 in 67.00 W/m2
06:59 54 °F 50.2 °F 30.2 in ESE 0.9 mph 1 mph 87% 0 in 79.00 W/m2
07:04 54.5 °F 50.7 °F 30.2 in East 2.9 mph 3 mph 87% 0 in 95.00 W/m2
07:09 55 °F 50.9 °F 30.2 in ENE 0.9 mph 5 mph 86% 0 in 111.00 W/m2
07:14 55.4 °F 51.3 °F 30.2 in Calm   3 mph 86% 0 in 123.00 W/m2
07:19 55.8 °F 51.3 °F 30.2 in Calm   3 mph 85% 0 in 142.00 W/m2
07:24 55.9 °F 51.3 °F 30.2 in Calm   2 mph 84% 0 in 158.00 W/m2
07:29 56.3 °F 51.4 °F 30.2 in Calm   3 mph 84% 0 in 174.00 W/m2
07:34 56.7 °F 51.6 °F 30.2 in East 2.9 mph 4 mph 83% 0 in 192.00 W/m2
07:39 56.8 °F 51.4 °F 30.2 in ESE 6.9 mph 7 mph 82% 0 in 207.00 W/m2
07:44 57 °F 51.6 °F 30.2 in ESE 4 mph 6 mph 82% 0 in 221.00 W/m2
07:49 57 °F 51.3 °F 30.2 in NNE 2.9 mph 9 mph 81% 0 in 237.00 W/m2
07:54 57.6 °F 51.8 °F 30.2 in Calm   4 mph 81% 0 in 253.00 W/m2
07:59 57.6 °F 51.4 °F 30.2 in Calm   4 mph 80% 0 in 269.00 W/m2
08:04 57.2 °F 51.1 °F 30.2 in ESE 2 mph 5 mph 80% 0 in 287.00 W/m2
08:09 57.6 °F 51.4 °F 30.2 in East 2.9 mph 5 mph 80% 0 in 302.00 W/m2
08:14 57.6 °F 51.1 °F 30.2 in ESE 4 mph 6 mph 79% 0 in 320.00 W/m2
08:19 57.9 °F 51.4 °F 30.2 in East 2.9 mph 4 mph 79% 0 in 338.00 W/m2
08:24 58.3 °F 51.8 °F 30.2 in ENE 0.9 mph 4 mph 79% 0 in 353.00 W/m2
08:29 58.8 °F 52 °F 30.2 in ENE 2.9 mph 5 mph 78% 0 in 374.00 W/m2
08:34 60.1 °F 52.9 °F 30.2 in ESE 2 mph 5 mph 77% 0 in 404.00 W/m2
08:39 60.6 °F 52.3 °F 30.2 in Calm   9 mph 74% 0 in 406.00 W/m2
08:44 61 °F 52.3 °F 30.2 in SE 2 mph 7 mph 73% 0 in 431.00 W/m2
08:49 59.7 °F 51.1 °F 30.2 in SE 4.9 mph 5 mph 73% 0 in 459.00 W/m2
08:54 59.9 °F 51.3 °F 30.2 in SE 0.9 mph 8 mph 73% 0 in 450.00 W/m2
08:59 60.4 °F 51.1 °F 30.2 in SE 2.9 mph 6 mph 71% 0 in 468.00 W/m2
09:04 60.3 °F 51.3 °F 30.2 in ESE 2 mph 4 mph 72% 0 in 478.00 W/m2
09:09 61 °F 51.4 °F 30.2 in ESE 4.9 mph 7 mph 71% 0 in 482.00 W/m2
09:14 60.6 °F 50.7 °F 30.2 in SE 2 mph 7 mph 70% 0 in 501.00 W/m2
09:19 61.5 °F 52 °F 30.2 in East 4 mph 7 mph 71% 0 in 519.00 W/m2
09:24 62.4 °F 52.2 °F 30.2 in ESE 2.9 mph 6 mph 69% 0 in 529.00 W/m2
09:29 60.8 °F 50.9 °F 30.2 in SE 4 mph 7 mph 70% 0 in 554.00 W/m2
09:34 61.3 °F 51.4 °F 30.2 in SE 2.9 mph 8 mph 70% 0 in 578.00 W/m2
09:39 62.2 °F 52.3 °F 30.2 in NE 0.9 mph 3 mph 70% 0 in 582.00 W/m2
09:44 63.1 °F 52.3 °F 30.2 in ESE 2 mph 9 mph 68% 0 in 584.00 W/m2
09:49 63.5 °F 52.3 °F 30.2 in SSE 0.9 mph 5 mph 67% 0 in 606.00 W/m2
09:54 63.9 °F 52.7 °F 30.2 in ESE 4 mph 9 mph 67% 0 in 619.00 W/m2
09:59 63.7 °F 51.6 °F 30.2 in NE 4 mph 9 mph 65% 0 in 626.00 W/m2
10:04 63.9 °F 52.7 °F 30.2 in NE 2.9 mph 7 mph 67% 0 in 628.00 W/m2
10:09 64 °F 52 °F 30.2 in NNE 2.9 mph 8 mph 65% 0 in 645.00 W/m2
10:14 63.9 °F 52.3 °F 30.2 in ENE 0.9 mph 8 mph 66% 0 in 664.00 W/m2
10:19 63.1 °F 52 °F 30.2 in Calm   3 mph 67% 0 in 693.00 W/m2
10:24 64 °F 52.5 °F 30.2 in ESE 2 mph 8 mph 66% 0 in 677.00 W/m2
10:29 64.2 °F 52.7 °F 30.2 in ENE 2 mph 9 mph 66% 0 in 677.00 W/m2
10:34 64.2 °F 52.2 °F 30.2 in Calm   1 mph 65% 0 in 742.00 W/m2
10:39 65.1 °F 52.2 °F 30.2 in SE 0.9 mph 9 mph 63% 0 in 749.00 W/m2
10:44 65.1 °F 52.7 °F 30.2 in East 2.9 mph 5 mph 64% 0 in 751.00 W/m2
10:49 65.1 °F 53.4 °F 30.2 in North 4.9 mph 5 mph 66% 0 in 742.00 W/m2
10:54 65.3 °F 54.5 °F 30.2 in ENE 4.9 mph 8 mph 68% 0 in 737.00 W/m2
10:59 65.7 °F 54.9 °F 30.2 in ESE 2 mph 7 mph 68% 0 in 749.00 W/m2
11:04 64.9 °F 54.1 °F 30.2 in NNE 2.9 mph 8 mph 68% 0 in 756.00 W/m2
11:09 65.5 °F 55 °F 30.2 in ENE 2.9 mph 6 mph 69% 0 in 759.00 W/m2
11:14 66.4 °F 54.7 °F 30.2 in Calm   6 mph 66% 0 in 773.00 W/m2
11:19 67.1 °F 55.8 °F 30.2 in SE 2.9 mph 8 mph 67% 0 in 807.00 W/m2
11:24 66.4 °F 55 °F 30.2 in NNW 2.9 mph 6 mph 67% 0 in 796.00 W/m2
11:29 67.5 °F 55.8 °F 30.2 in ESE 2 mph 5 mph 66% 0 in 185.00 W/m2
11:34 66.2 °F 54.1 °F 30.2 in NNE 2 mph 11 mph 65% 0 in 788.00 W/m2
11:39 66.2 °F 54.1 °F 30.2 in SSE 2 mph 7 mph 65% 0 in 789.00 W/m2
11:44 66.7 °F 55 °F 30.2 in ESE 2.9 mph 3 mph 66% 0 in 814.00 W/m2
11:49 66.6 °F 55.2 °F 30.2 in ESE 4 mph 7 mph 67% 0 in 812.00 W/m2
11:54 66.6 °F 54.9 °F 30.2 in South 6.9 mph 7 mph 66% 0 in 809.00 W/m2
11:59 65.8 °F 54.5 °F 30.2 in South 4 mph 10 mph 67% 0 in 817.00 W/m2
12:04 64 °F 53.6 °F 30.2 in SSE 0.9 mph 8 mph 69% 0 in 830.00 W/m2
12:09 67.6 °F 55.4 °F 30.2 in NNE 4 mph 10 mph 65% 0 in 840.00 W/m2
12:14 68.2 °F 56.3 °F 30.2 in ESE 2.9 mph 7 mph 66% 0 in 838.00 W/m2
12:19 69.8 °F 54.9 °F 30.2 in ESE 4.9 mph 8 mph 59% 0 in 863.00 W/m2
12:24 67.3 °F 54.7 °F 30.2 in South 4.9 mph 9 mph 64% 0 in 870.00 W/m2
12:29 68.5 °F 55.9 °F 30.2 in East 6.9 mph 8 mph 64% 0 in 860.00 W/m2
12:34 70.2 °F 56.5 °F 30.2 in Calm   4 mph 62% 0 in 879.00 W/m2
12:39 70 °F 55.4 °F 30.2 in ESE 2.9 mph 11 mph 60% 0 in 860.00 W/m2
12:44 69.3 °F 54.3 °F 30.2 in SSE 4 mph 9 mph 59% 0 in 858.00 W/m2
12:49 66.6 °F 55.2 °F 30.2 in Calm   2 mph 67% 0 in 874.00 W/m2
12:54 68 °F 55.4 °F 30.2 in NE 2.9 mph 8 mph 64% 0 in 856.00 W/m2
12:59 70.7 °F 56.1 °F 30.2 in ESE 6.9 mph 7 mph 60% 0 in 847.00 W/m2
13:04 70 °F 55 °F 30.2 in Calm   6 mph 59% 0 in 853.00 W/m2
13:09 70.2 °F 56.1 °F 30.2 in NE 2.9 mph 5 mph 61% 0 in 919.00 W/m2
13:14 70.7 °F 56.7 °F 30.2 in ESE 10 mph 10 mph 61% 0 in 902.00 W/m2
13:19 70.5 °F 55.9 °F 30.2 in NE 6.9 mph 7 mph 60% 0 in 935.00 W/m2
13:24 71.8 °F 56.1 °F 30.2 in ESE 2 mph 6 mph 58% 0 in 916.00 W/m2
13:29 72.3 °F 56.3 °F 30.2 in East 2 mph 3 mph 57% 0 in 921.00 W/m2
13:34 72.9 °F 56.7 °F 30.2 in ESE 4.9 mph 8 mph 57% 0 in 918.00 W/m2
13:39 72.5 °F 56.8 °F 30.2 in ESE 2.9 mph 8 mph 58% 0 in 891.00 W/m2
13:44 72.7 °F 57 °F 30.2 in ESE 4 mph 6 mph 58% 0 in 937.00 W/m2
13:49 73.2 °F 57 °F 30.2 in SE 2.9 mph 3 mph 57% 0 in 974.00 W/m2
13:54 73 °F 56.5 °F 30.2 in NE 6.9 mph 8 mph 56% 0 in 237.00 W/m2
13:59 69.8 °F 55.2 °F 30.2 in SW 4 mph 4 mph 60% 0 in 933.00 W/m2
14:04 71.8 °F 56.7 °F 30.2 in Calm   5 mph 59% 0 in 946.00 W/m2
14:09 72.5 °F 55.9 °F 30.2 in NNE 4 mph 6 mph 56% 0 in 970.00 W/m2
14:14 72.5 °F 56.8 °F 30.2 in NE 6.9 mph 7 mph 58% 0 in 949.00 W/m2
14:19 70.3 °F 55.8 °F 30.2 in Calm   3 mph 60% 0 in 974.00 W/m2
14:24 71.2 °F 55.8 °F 30.2 in NE 2.9 mph 8 mph 58% 0 in 206.00 W/m2
14:29 70.7 °F 56.1 °F 30.2 in Calm   1 mph 60% 0 in 271.00 W/m2
14:34 73.4 °F 57.2 °F 30.2 in SE 4 mph 5 mph 57% 0 in 879.00 W/m2
14:39 72.7 °F 56.5 °F 30.2 in NNE 2.9 mph 3 mph 57% 0 in 905.00 W/m2
14:44 73 °F 56.5 °F 30.2 in SE 2 mph 6 mph 56% 0 in 902.00 W/m2
14:49 73.8 °F 56.7 °F 30.2 in SSE 4 mph 8 mph 55% 0 in 902.00 W/m2
14:54 72.1 °F 55 °F 30.2 in NW 4 mph 8 mph 55% 0 in 877.00 W/m2
14:59 71.2 °F 55.8 °F 30.2 in Calm   6 mph 58% 0 in 911.00 W/m2
15:04 72.1 °F 56.5 °F 30.2 in ESE 4.9 mph 7 mph 58% 0 in 907.00 W/m2
15:09 74.8 °F 56.5 °F 30.2 in ENE 2 mph 6 mph 53% 0 in 847.00 W/m2
15:14 76.1 °F 56.7 °F 30.2 in NE 10 mph 10 mph 51% 0 in 830.00 W/m2
15:19 72.9 °F 55.8 °F 30.2 in NE 4 mph 8 mph 55% 0 in 860.00 W/m2
15:24 72.5 °F 55.4 °F 30.2 in Calm   3 mph 55% 0 in 847.00 W/m2
15:29 73.9 °F 56.3 °F 30.2 in Calm   8 mph 54% 0 in 192.00 W/m2
15:34 74.1 °F 55.9 °F 30.2 in SE 4 mph 4 mph 53% 0 in 846.00 W/m2
15:38 71.2 °F 54.7 °F 30.2 in South 4.9 mph 6 mph 56% 0 in 810.00 W/m2
15:44 72.5 °F 55.9 °F 30.2 in ESE 4 mph 5 mph 56% 0 in 814.00 W/m2
15:49 73.8 °F 56.1 °F 30.2 in SE 0.9 mph 3 mph 54% 0 in 782.00 W/m2
15:54 74.7 °F 55.9 °F 30.2 in NNW 0.9 mph 6 mph 52% 0 in 805.00 W/m2
15:59 74.1 °F 55.4 °F 30.2 in North 2 mph 6 mph 52% 0 in 791.00 W/m2
16:04 73.2 °F 55 °F 30.2 in South 2.9 mph 7 mph 53% 0 in 176.00 W/m2
16:09 72.7 °F 54.5 °F 30.2 in SE 2 mph 5 mph 53% 0 in 758.00 W/m2
16:14 72.9 °F 55.2 °F 30.2 in ESE 0.9 mph 8 mph 54% 0 in 740.00 W/m2
16:19 73.9 °F 55.8 °F 30.2 in NNE 4.9 mph 6 mph 53% 0 in 738.00 W/m2
16:24 73.8 °F 55.6 °F 30.2 in NNE 2 mph 6 mph 53% 0 in 729.00 W/m2
16:29 73 °F 55.4 °F 30.2 in ESE 4.9 mph 10 mph 54% 0 in 714.00 W/m2
16:34 73.9 °F 55.8 °F 30.2 in East 4 mph 5 mph 53% 0 in 708.00 W/m2
16:39 73.4 °F 54.7 °F 30.2 in SE 2 mph 5 mph 52% 0 in 134.00 W/m2
16:44 72.9 °F 54.1 °F 30.2 in ESE 4.9 mph 6 mph 52% 0 in 663.00 W/m2
16:49 72.7 °F 54.5 °F 30.1 in ENE 2 mph 8 mph 53% 0 in 650.00 W/m2
16:54 72.5 °F 54.3 °F 30.1 in Calm   9 mph 53% 0 in 638.00 W/m2
16:59 73 °F 55.4 °F 30.1 in ENE 4 mph 4 mph 54% 0 in 605.00 W/m2
17:04 74.1 °F 55.4 °F 30.1 in East 0.9 mph 4 mph 52% 0 in 592.00 W/m2
17:09 72.7 °F 53.4 °F 30.1 in ESE 2.9 mph 8 mph 51% 0 in 584.00 W/m2
17:14 73.2 °F 54.5 °F 30.1 in Calm   4 mph 52% 0 in 557.00 W/m2
17:19 74.3 °F 55 °F 30.1 in NE 0.9 mph 3 mph 51% 0 in 162.00 W/m2
17:24 74.3 °F 55 °F 30.1 in SSE 4 mph 6 mph 51% 0 in 540.00 W/m2
17:29 73.8 °F 54.5 °F 30.1 in SE 0.9 mph 4 mph 51% 0 in 527.00 W/m2
17:34 74.8 °F 55.6 °F 30.1 in ENE 6 mph 6 mph 51% 0 in 512.00 W/m2
17:39 74.3 °F 53.4 °F 30.1 in Calm   3 mph 48% 0 in 503.00 W/m2
17:44 73.4 °F 54.1 °F 30.1 in Calm   5 mph 51% 0 in 490.00 W/m2
17:49 74.1 °F 55.4 °F 30.1 in ESE 6.9 mph 7 mph 52% 0 in 480.00 W/m2
17:54 74.3 °F 55 °F 30.1 in SSE 4 mph 6 mph 51% 0 in 462.00 W/m2
17:59 73.2 °F 54.5 °F 30.1 in SW 2 mph 4 mph 52% 0 in 448.00 W/m2
18:04 73.9 °F 55.2 °F 30.1 in ESE 2 mph 8 mph 52% 0 in 432.00 W/m2
18:09 74.5 °F 55.2 °F 30.1 in NE 2 mph 6 mph 51% 0 in 418.00 W/m2
18:14 74.3 °F 55 °F 30.1 in Calm   7 mph 51% 0 in 394.00 W/m2
18:19 74.3 °F 55 °F 30.1 in ENE 0.9 mph 7 mph 51% 0 in 380.00 W/m2
18:24 73.9 °F 55.2 °F 30.1 in ENE 4.9 mph 7 mph 52% 0 in 360.00 W/m2
18:29 73.6 °F 54.9 °F 30.1 in SSE 0.9 mph 5 mph 52% 0 in 346.00 W/m2
18:34 73.6 °F 55.4 °F 30.1 in Calm   1 mph 53% 0 in 348.00 W/m2
18:39 73.6 °F 54.3 °F 30.1 in Calm   4 mph 51% 0 in 341.00 W/m2
18:44 73.8 °F 55 °F 30.1 in ESE 2.9 mph 6 mph 52% 0 in 327.00 W/m2
18:49 74.1 °F 54.9 °F 30.1 in ESE 0.9 mph 6 mph 51% 0 in 316.00 W/m2
18:54 74.8 °F 55.6 °F 30.1 in SE 4 mph 7 mph 51% 0 in 288.00 W/m2
18:59 75 °F 55.6 °F 30.1 in Calm   3 mph 51% 0 in 271.00 W/m2
19:04 75.6 °F 55.6 °F 30.1 in Calm   5 mph 50% 0 in 271.00 W/m2
19:09 75.7 °F 55.2 °F 30.1 in ESE 4 mph 7 mph 49% 0 in 218.00 W/m2
19:14 73.9 °F 54.1 °F 30.1 in SSE 2 mph 6 mph 50% 0 in 202.00 W/m2
19:19 72.1 °F 53.6 °F 30.1 in Calm   4 mph 52% 0 in 202.00 W/m2
19:24 72.1 °F 54.1 °F 30.1 in SSE 0.9 mph 5 mph 53% 0 in 163.00 W/m2
19:29 72 °F 53.4 °F 30.1 in SSE 2.9 mph 5 mph 52% 0 in 188.00 W/m2
19:34 72.3 °F 54.1 °F 30.1 in East 0.9 mph 5 mph 53% 0 in 188.00 W/m2
19:39 73 °F 54.3 °F 30.1 in NE 0.9 mph 4 mph 52% 0 in 163.00 W/m2
19:44 71.4 °F 53.4 °F 30.1 in SE 2.9 mph 5 mph 53% 0 in 142.00 W/m2
19:49 71.1 °F 54.1 °F 30.1 in ESE 4.9 mph 5 mph 55% 0 in 98.00 W/m2
19:54 71.4 °F 54.5 °F 30.1 in SE 2 mph 4 mph 55% 0 in 111.00 W/m2
19:59 71.4 °F 54.5 °F 30.1 in Calm   4 mph 55% 0 in 97.00 W/m2
20:04 71.4 °F 54.5 °F 30.1 in SE 0.9 mph 2 mph 55% 0 in 77.00 W/m2
20:09 71.6 °F 54.5 °F 30.1 in Calm   4 mph 55% 0 in 65.00 W/m2
20:14 71.2 °F 54.3 °F 30.1 in Calm   3 mph 55% 0 in 47.00 W/m2
20:19 71.1 °F 54.5 °F 30.1 in Calm   1 mph 56% 0 in 33.00 W/m2
20:24 71.1 °F 54.5 °F 30.1 in Calm   2 mph 56% 0 in 39.00 W/m2
20:29 71.2 °F 54.7 °F 30.1 in SE 0.9 mph 1 mph 56% 0 in 30.00 W/m2
20:34 71.1 °F 54.5 °F 30.1 in ESE 4 mph 4 mph 56% 0 in 23.00 W/m2
20:39 70.7 °F 54.7 °F 30.1 in Calm   3 mph 57% 0 in 19.00 W/m2
20:44 70.5 °F 55 °F 30.1 in East 2 mph 3 mph 58% 0 in 18.00 W/m2
20:49 70.3 °F 54.9 °F 30.1 in Calm     58% 0 in 14.00 W/m2
20:54 70.3 °F 54.9 °F 30.1 in Calm   1 mph 58% 0 in 12.00 W/m2
20:59 70.2 °F 55.2 °F 30.1 in Calm     59% 0 in 11.00 W/m2
21:04 69.8 °F 54.9 °F 30.1 in Calm   1 mph 59% 0 in 7.00 W/m2
21:09 69.6 °F 55 °F 30.1 in Calm   1 mph 60% 0 in 5.00 W/m2
21:14 69.3 °F 54.9 °F 30.1 in Calm     60% 0 in 0.00 W/m2
21:19 68.7 °F 54.7 °F 30.1 in Calm     61% 0 in 0.00 W/m2
21:24 68.4 °F 54.9 °F 30.1 in Calm     62% 0 in 0.00 W/m2
21:29 68.2 °F 54.7 °F 30.1 in Calm     62% 0 in 0.00 W/m2
21:34 68 °F 54.9 °F 30.1 in Calm     63% 0 in 0.00 W/m2
21:39 67.8 °F 54.7 °F 30.1 in Calm     63% 0 in 0.00 W/m2
21:44 67.6 °F 54.7 °F 30.1 in Calm     63% 0 in 0.00 W/m2
21:49 67.5 °F 54.9 °F 30.1 in Calm     64% 0 in 0.00 W/m2
21:54 66.2 °F 54.1 °F 30.1 in SSE 2 mph 7 mph 65% 0 in 0.00 W/m2
21:59 65.8 °F 54.5 °F 30.1 in Calm   1 mph 67% 0 in 0.00 W/m2
22:04 65.3 °F 54.5 °F 30.1 in SW 2.9 mph 6 mph 68% 0 in 0.00 W/m2
22:09 64.2 °F 54.3 °F 30.1 in Calm   4 mph 70% 0 in 0.00 W/m2
22:14 63.9 °F 54.3 °F 30.1 in SW 2 mph 2 mph 71% 0 in 0.00 W/m2
22:19 63.1 °F 54 °F 30.1 in SW 2.9 mph 4 mph 72% 0 in 0.00 W/m2
22:24 63 °F 53.8 °F 30.1 in SW 0.9 mph 4 mph 72% 0 in 0.00 W/m2
22:29 62.6 °F 53.8 °F 30.1 in SW 2 mph 4 mph 73% 0 in 0.00 W/m2
22:34 62.4 °F 53.6 °F 30.1 in Calm   4 mph 73% 0 in 0.00 W/m2
22:39 62.4 °F 53.6 °F 30.1 in SW 0.9 mph 3 mph 73% 0 in 0.00 W/m2
22:44 62.2 °F 53.4 °F 30.1 in Calm   2 mph 73% 0 in 0.00 W/m2
22:49 62.1 °F 53.2 °F 30.1 in SW 0.9 mph 3 mph 73% 0 in 0.00 W/m2
22:54 61.7 °F 53.2 °F 30.1 in SW 0.9 mph 5 mph 74% 0 in 0.00 W/m2
22:59 61.7 °F 53.2 °F 30.1 in Calm     74% 0 in 0.00 W/m2
23:04 61.5 °F 53.2 °F 30.2 in SW 0.9 mph 2 mph 74% 0 in 0.00 W/m2
23:09 61.3 °F 53.1 °F 30.1 in Calm   2 mph 74% 0 in 0.00 W/m2
23:14 61.2 °F 52.9 °F 30.1 in Calm     74% 0 in 0.00 W/m2
23:19 60.8 °F 52.5 °F 30.1 in Calm     74% 0 in 0.00 W/m2
23:24 60.6 °F 52.3 °F 30.1 in Calm   2 mph 74% 0 in 0.00 W/m2
23:29 60.4 °F 52.5 °F 30.1 in Calm   1 mph 75% 0 in 0.00 W/m2
23:34 60.3 °F 52.3 °F 30.1 in Calm     75% 0 in 0.00 W/m2
23:39 60.3 °F 52.3 °F 30.1 in Calm     75% 0 in 0.00 W/m2
23:44 60.3 °F 52.3 °F 30.1 in Calm     75% 0 in 0.00 W/m2
23:49 60.3 °F 52.3 °F 30.1 in Calm     75% 0 in 0.00 W/m2
23:54 60.3 °F 52.3 °F 30.1 in Calm     75% 0 in 0.00 W/m2
23:59 60.1 °F 52.5 °F 30.1 in Calm     76% 0 in 0.00 W/m2